Time;durP1;ratioP1;P1;durP2;ratioP2;P2;SDS_P1;SDS_P2;PMS_P1;PMS_P2;Temp;Humidity;BMP_temperature;BMP_pressure;BME280_temperature;BME280_humidity;BME280_pressure;Samples;Min_cycle;Max_cycle;Signal;HPM_P1;HPM_P2
2022/08/19 00:00:40;;;;;;;9.80;7.73;;;;;;;;;;5092555;28;20528;-78
2022/08/19 00:03:08;;;;;;;9.57;7.07;;;;;;;;;;5091457;28;20461;-77
2022/08/19 00:05:35;;;;;;;8.60;6.50;;;;;;;;;;5092175;28;20982;-77
2022/08/19 00:08:03;;;;;;;10.20;7.70;;;;;;;;;;5091197;28;20443;-77
2022/08/19 00:10:30;;;;;;;8.17;6.73;;;;;;;;;;5092070;28;20864;-78
2022/08/19 00:12:57;;;;;;;9.30;7.40;;;;;;;;;;5091782;28;20509;-77
2022/08/19 00:15:24;;;;;;;9.40;6.57;;;;;;;;;;5091893;28;20567;-77
2022/08/19 00:17:53;;;;;;;8.47;7.37;;;;;;;;;;5085657;28;20437;-78
2022/08/19 00:20:22;;;;;;;9.30;7.23;;;;;;;;;;5091789;28;20912;-75
2022/08/19 00:22:49;;;;;;;8.37;6.73;;;;;;;;;;5091408;28;20987;-77
2022/08/19 00:25:16;;;;;;;9.57;7.37;;;;;;;;;;5091727;28;20920;-76
2022/08/19 00:27:44;;;;;;;9.03;7.10;;;;;;;;;;5091054;28;20524;-68
2022/08/19 00:30:11;;;;;;;8.10;5.77;;;;;;;;;;5092040;28;20476;-77
2022/08/19 00:32:40;;;;;;;10.70;7.40;;;;;;;;;;5091749;28;20476;-77
2022/08/19 00:35:10;;;;;;;7.73;6.80;;;;;;;;;;5091670;28;20444;-77
2022/08/19 00:37:38;;;;;;;9.93;7.60;;;;;;;;;;5091580;28;20939;-77
2022/08/19 00:40:06;;;;;;;11.60;8.77;;;;;;;;;;5091268;28;20441;-76
2022/08/19 00:42:33;;;;;;;9.33;7.73;;;;;;;;;;5091625;28;20494;-77
2022/08/19 00:45:01;;;;;;;10.90;8.10;;;;;;;;;;5091590;28;20515;-77
2022/08/19 00:47:28;;;;;;;8.67;6.50;;;;;;;;;;5091221;28;20481;-77
2022/08/19 00:49:57;;;;;;;10.40;7.13;;;;;;;;;;5091211;28;20936;-77
2022/08/19 00:52:28;;;;;;;12.33;6.87;;;;;;;;;;5091728;28;20531;-77
2022/08/19 00:54:56;;;;;;;16.33;7.03;;;;;;;;;;5090893;28;21011;-77
2022/08/19 00:57:27;;;;;;;7.27;6.03;;;;;;;;;;5091109;28;20449;-77
2022/08/19 00:59:55;;;;;;;12.30;7.30;;;;;;;;;;5090695;28;20444;-77
2022/08/19 01:02:22;;;;;;;11.37;7.33;;;;;;;;;;5091244;28;20441;-77
2022/08/19 01:04:50;;;;;;;8.40;6.30;;;;;;;;;;5091142;28;20528;-77
2022/08/19 01:07:17;;;;;;;10.47;6.40;;;;;;;;;;5091001;28;20576;-77
2022/08/19 01:09:45;;;;;;;9.73;7.17;;;;;;;;;;5091084;28;20463;-74
2022/08/19 01:12:13;;;;;;;9.50;6.70;;;;;;;;;;5091857;28;20436;-76
2022/08/19 01:14:41;;;;;;;8.97;7.03;;;;;;;;;;5091574;28;20528;-77
2022/08/19 01:17:09;;;;;;;10.80;7.43;;;;;;;;;;5090994;28;20982;-77
2022/08/19 01:19:38;;;;;;;10.87;7.90;;;;;;;;;;5091167;28;20459;-77
2022/08/19 01:22:09;;;;;;;8.93;6.33;;;;;;;;;;5090702;28;20503;-77
2022/08/19 01:24:38;;;;;;;9.60;7.50;;;;;;;;;;5091550;28;20425;-77
2022/08/19 01:27:05;;;;;;;10.37;7.43;;;;;;;;;;5090219;28;20469;-76
2022/08/19 01:29:33;;;;;;;10.10;6.77;;;;;;;;;;5091091;28;20507;-77
2022/08/19 01:32:02;;;;;;;8.20;6.67;;;;;;;;;;5090653;28;20463;-76
2022/08/19 01:34:29;;;;;;;9.60;7.30;;;;;;;;;;5091411;28;20474;-78
2022/08/19 01:36:56;;;;;;;9.73;7.20;;;;;;;;;;5090319;28;20437;-79
2022/08/19 01:39:24;;;;;;;8.63;6.93;;;;;;;;;;5090781;28;20946;-77
2022/08/19 01:41:54;;;;;;;9.03;7.37;;;;;;;;;;5090646;28;20445;-77
2022/08/19 01:44:23;;;;;;;9.90;7.50;;;;;;;;;;5090963;28;20437;-77
2022/08/19 01:46:52;;;;;;;11.50;9.17;;;;;;;;;;5090074;28;20476;-77
2022/08/19 01:49:20;;;;;;;8.13;7.27;;;;;;;;;;5091265;28;20857;-77
2022/08/19 01:51:48;;;;;;;11.17;7.93;;;;;;;;;;5090563;28;20441;-76
2022/08/19 01:54:16;;;;;;;9.40;7.47;;;;;;;;;;5093637;28;21002;-76
2022/08/19 01:56:44;;;;;;;10.80;8.03;;;;;;;;;;5093857;28;20467;-71
2022/08/19 01:59:14;;;;;;;12.57;7.53;;;;;;;;;;5094242;28;20527;-77
2022/08/19 02:01:41;;;;;;;12.07;7.80;;;;;;;;;;5094584;28;20440;-77
2022/08/19 02:04:08;;;;;;;9.07;7.30;;;;;;;;;;5094555;28;20444;-77
2022/08/19 02:06:36;;;;;;;9.57;7.50;;;;;;;;;;5094178;28;21001;-78
2022/08/19 02:09:03;;;;;;;9.10;6.73;;;;;;;;;;5093547;28;21141;-77
2022/08/19 02:11:33;;;;;;;11.00;7.90;;;;;;;;;;5094452;28;20556;-77
2022/08/19 02:14:01;;;;;;;11.43;6.80;;;;;;;;;;5094060;28;20531;-78
2022/08/19 02:16:30;;;;;;;9.73;7.10;;;;;;;;;;5098264;28;20441;-77
2022/08/19 02:19:00;;;;;;;9.93;6.70;;;;;;;;;;5095214;28;20498;-78
2022/08/19 02:21:27;;;;;;;12.00;8.20;;;;;;;;;;5095007;28;20445;-77
2022/08/19 02:23:55;;;;;;;9.70;8.27;;;;;;;;;;5093850;28;20444;-77
2022/08/19 02:26:23;;;;;;;10.63;7.93;;;;;;;;;;5094447;28;20472;-77
2022/08/19 02:28:50;;;;;;;12.20;8.47;;;;;;;;;;5093125;28;20468;-78
2022/08/19 02:31:19;;;;;;;11.60;8.83;;;;;;;;;;5093723;28;20965;-77
2022/08/19 02:33:48;;;;;;;12.40;9.50;;;;;;;;;;5093264;28;20559;-77
2022/08/19 02:36:16;;;;;;;11.90;8.47;;;;;;;;;;5093793;28;20441;-77
2022/08/19 02:38:43;;;;;;;10.20;8.00;;;;;;;;;;5093547;28;20441;-68
2022/08/19 02:41:13;;;;;;;11.30;7.93;;;;;;;;;;5094214;28;20829;-77
2022/08/19 02:43:40;;;;;;;11.57;8.23;;;;;;;;;;5094286;28;20473;-76
2022/08/19 02:46:12;;;;;;;10.67;7.83;;;;;;;;;;5092885;28;20441;-77
2022/08/19 02:48:40;;;;;;;10.60;8.80;;;;;;;;;;5094018;28;20433;-77
2022/08/19 02:51:08;;;;;;;11.57;8.40;;;;;;;;;;5093109;28;20443;-77
2022/08/19 02:53:35;;;;;;;11.90;8.80;;;;;;;;;;5093664;28;20861;-77
2022/08/19 02:56:02;;;;;;;11.40;8.63;;;;;;;;;;5093184;28;20443;-77
2022/08/19 02:58:30;;;;;;;14.10;9.73;;;;;;;;;;5092857;28;20444;-77
2022/08/19 03:00:58;;;;;;;11.23;8.63;;;;;;;;;;5092948;28;20447;-77
2022/08/19 03:03:25;;;;;;;11.13;9.17;;;;;;;;;;5092919;28;20552;-76
2022/08/19 03:05:52;;;;;;;13.17;9.33;;;;;;;;;;5093206;28;20764;-76
2022/08/19 03:08:20;;;;;;;10.97;7.90;;;;;;;;;;5092694;28;20487;-76
2022/08/19 03:10:49;;;;;;;15.30;9.20;;;;;;;;;;5092799;28;20437;-77
2022/08/19 03:13:17;;;;;;;10.93;8.20;;;;;;;;;;5093403;28;20867;-77
2022/08/19 03:15:45;;;;;;;11.43;8.40;;;;;;;;;;5092541;28;20436;-73
2022/08/19 03:18:12;;;;;;;11.33;9.30;;;;;;;;;;5092575;28;20445;-77
2022/08/19 03:20:43;;;;;;;11.43;8.97;;;;;;;;;;5093565;28;20795;-77
2022/08/19 03:23:12;;;;;;;11.93;8.43;;;;;;;;;;5093320;28;20439;-77
2022/08/19 03:25:43;;;;;;;17.83;9.70;;;;;;;;;;5093463;28;20467;-77
2022/08/19 03:28:11;;;;;;;15.40;10.77;;;;;;;;;;5079774;28;20551;-77
2022/08/19 03:30:39;;;;;;;12.50;8.80;;;;;;;;;;5093136;28;20444;-77
2022/08/19 03:33:06;;;;;;;10.80;7.87;;;;;;;;;;5092335;28;20468;-77
2022/08/19 03:35:36;;;;;;;13.63;10.20;;;;;;;;;;5092944;28;20746;-77
2022/08/19 03:38:03;;;;;;;12.87;9.40;;;;;;;;;;5092211;28;20780;-77
2022/08/19 03:40:30;;;;;;;12.07;10.00;;;;;;;;;;5092587;28;20445;-77
2022/08/19 03:42:59;;;;;;;12.40;8.80;;;;;;;;;;5092203;28;20444;-77
2022/08/19 03:45:27;;;;;;;10.10;8.47;;;;;;;;;;5092684;28;20502;-77
2022/08/19 03:47:54;;;;;;;12.83;9.43;;;;;;;;;;5079728;28;20554;-77
2022/08/19 03:50:21;;;;;;;14.57;9.67;;;;;;;;;;5092750;28;20437;-77
2022/08/19 03:52:50;;;;;;;13.83;10.10;;;;;;;;;;5092370;28;20445;-77
2022/08/19 03:55:17;;;;;;;13.33;9.97;;;;;;;;;;5092605;28;20441;-77
2022/08/19 03:57:48;;;;;;;12.27;8.83;;;;;;;;;;5091836;28;20449;-77
2022/08/19 04:00:17;;;;;;;13.90;10.30;;;;;;;;;;5092687;28;20748;-76
2022/08/19 04:02:45;;;;;;;15.30;9.60;;;;;;;;;;5091530;28;20549;-76
2022/08/19 04:05:13;;;;;;;14.23;9.90;;;;;;;;;;5092706;28;20855;-77
2022/08/19 04:07:40;;;;;;;14.53;10.30;;;;;;;;;;5092287;28;20476;-77
2022/08/19 04:10:08;;;;;;;15.80;10.60;;;;;;;;;;5091757;28;20437;-77
2022/08/19 04:12:36;;;;;;;15.20;10.90;;;;;;;;;;5092298;28;20436;-77
2022/08/19 04:15:04;;;;;;;16.03;11.70;;;;;;;;;;5091258;28;20819;-77
2022/08/19 04:17:33;;;;;;;13.33;10.23;;;;;;;;;;5091274;28;20445;-76
2022/08/19 04:20:01;;;;;;;17.27;11.57;;;;;;;;;;5091479;28;20440;-77
2022/08/19 04:22:28;;;;;;;14.53;10.83;;;;;;;;;;5092132;28;20480;-77
2022/08/19 04:24:55;;;;;;;15.50;10.40;;;;;;;;;;5091554;28;20525;-76
2022/08/19 04:27:22;;;;;;;14.57;9.10;;;;;;;;;;5091452;28;20499;-77
2022/08/19 04:29:49;;;;;;;16.47;10.80;;;;;;;;;;5091533;28;20441;-77
2022/08/19 04:32:16;;;;;;;13.40;9.37;;;;;;;;;;5091989;28;20449;-77
2022/08/19 04:34:45;;;;;;;17.47;11.90;;;;;;;;;;5091658;28;20436;-69
2022/08/19 04:37:13;;;;;;;15.07;11.03;;;;;;;;;;5091469;28;20498;-73
2022/08/19 04:42:41;;;;;;;16.73;12.17;;;;;;;;;;5092199;28;20998;-76
2022/08/19 04:45:10;;;;;;;16.80;10.37;;;;;;;;;;5091637;28;20440;-77
2022/08/19 04:47:37;;;;;;;16.33;11.77;;;;;;;;;;5091229;28;20476;-77
2022/08/19 04:50:07;;;;;;;13.83;11.23;;;;;;;;;;5091133;28;20531;-77
2022/08/19 04:52:34;;;;;;;15.37;11.43;;;;;;;;;;5091951;28;20856;-77
2022/08/19 04:55:01;;;;;;;17.70;11.20;;;;;;;;;;5091288;28;20476;-77
2022/08/19 04:57:28;;;;;;;14.60;10.27;;;;;;;;;;5091209;28;20448;-77
2022/08/19 04:59:56;;;;;;;15.37;11.40;;;;;;;;;;5090797;28;20432;-77
2022/08/19 05:02:25;;;;;;;13.80;10.00;;;;;;;;;;5091703;28;20787;-77
2022/08/19 05:04:52;;;;;;;14.87;10.93;;;;;;;;;;5091249;28;20780;-77
2022/08/19 05:07:21;;;;;;;15.60;11.03;;;;;;;;;;5091167;28;20485;-77
2022/08/19 05:09:48;;;;;;;14.20;10.90;;;;;;;;;;5091244;28;20436;-77
2022/08/19 05:12:15;;;;;;;15.90;10.40;;;;;;;;;;5092080;28;20779;-77
2022/08/19 05:14:42;;;;;;;16.00;11.80;;;;;;;;;;5091796;28;20498;-77
2022/08/19 05:17:09;;;;;;;13.10;10.60;;;;;;;;;;5091635;28;20519;-77
2022/08/19 05:22:35;;;;;;;17.00;11.70;;;;;;;;;;5091823;28;20416;-78
2022/08/19 05:25:03;;;;;;;12.87;10.70;;;;;;;;;;5091501;28;20433;-78
2022/08/19 05:27:30;;;;;;;14.93;9.60;;;;;;;;;;5093322;28;20566;-78
2022/08/19 05:29:57;;;;;;;17.97;11.20;;;;;;;;;;5094987;28;20445;-78
2022/08/19 05:32:24;;;;;;;16.77;11.77;;;;;;;;;;5095604;28;20551;-78
2022/08/19 05:34:52;;;;;;;18.50;12.30;;;;;;;;;;5095426;28;20429;-78
2022/08/19 05:37:19;;;;;;;15.10;11.40;;;;;;;;;;5095656;28;20451;-78
2022/08/19 05:39:48;;;;;;;16.67;12.13;;;;;;;;;;5096758;28;20792;-78
2022/08/19 05:42:16;;;;;;;18.23;12.60;;;;;;;;;;5097912;28;20525;-78
2022/08/19 05:44:44;;;;;;;12.77;9.10;;;;;;;;;;5096261;28;20440;-78
2022/08/19 05:47:12;;;;;;;16.47;9.83;;;;;;;;;;5095947;28;20833;-77
2022/08/19 05:49:40;;;;;;;15.87;12.03;;;;;;;;;;5097080;28;20436;-78
2022/08/19 05:52:08;;;;;;;12.30;10.93;;;;;;;;;;5096559;28;20923;-78
2022/08/19 05:54:35;;;;;;;15.97;12.67;;;;;;;;;;5100328;28;20665;-78
2022/08/19 05:57:04;;;;;;;13.87;10.37;;;;;;;;;;5113371;28;20443;-78
2022/08/19 05:59:31;;;;;;;12.30;9.70;;;;;;;;;;5111969;28;20492;-78
2022/08/19 06:02:00;;;;;;;15.93;11.47;;;;;;;;;;5112062;28;20455;-78
2022/08/19 06:04:28;;;;;;;14.93;11.13;;;;;;;;;;5103732;28;20516;-78
2022/08/19 06:06:56;;;;;;;16.50;10.60;;;;;;;;;;5116977;28;20452;-76
2022/08/19 06:09:24;;;;;;;13.17;10.67;;;;;;;;;;5118445;28;20420;-77
2022/08/19 06:11:53;;;;;;;17.87;11.07;;;;;;;;;;5116577;28;20457;-75
2022/08/19 06:14:22;;;;;;;18.77;12.43;;;;;;;;;;5117859;28;20453;-73
2022/08/19 06:16:50;;;;;;;14.13;9.83;;;;;;;;;;5117159;28;20429;-71
2022/08/19 06:19:19;;;;;;;16.20;11.00;;;;;;;;;;5118233;28;20437;-75
2022/08/19 06:21:49;;;;;;;14.83;11.20;;;;;;;;;;5117027;28;20468;-68
2022/08/19 06:24:17;;;;;;;16.30;11.00;;;;;;;;;;5117317;28;20433;-76
2022/08/19 06:26:46;;;;;;;15.07;10.47;;;;;;;;;;5113555;28;20493;-69
2022/08/19 06:29:14;;;;;;;16.37;10.83;;;;;;;;;;5115801;28;20573;-78
2022/08/19 06:31:44;;;;;;;14.00;10.87;;;;;;;;;;5113537;28;20441;-77
2022/08/19 06:34:11;;;;;;;13.03;9.43;;;;;;;;;;5108549;28;20535;-78
2022/08/19 06:36:40;;;;;;;15.40;11.53;;;;;;;;;;5099861;28;20440;-77
2022/08/19 06:39:08;;;;;;;13.90;10.83;;;;;;;;;;5093160;28;20452;-77
2022/08/19 06:41:36;;;;;;;12.70;9.90;;;;;;;;;;5094210;28;20574;-77
2022/08/19 06:44:04;;;;;;;12.87;10.50;;;;;;;;;;5093467;28;20766;-77
2022/08/19 06:46:31;;;;;;;16.60;11.97;;;;;;;;;;5093374;28;20528;-77
2022/08/19 06:49:00;;;;;;;15.67;11.23;;;;;;;;;;5093431;28;20473;-77
2022/08/19 06:51:28;;;;;;;12.70;10.17;;;;;;;;;;5094113;28;20440;-77
2022/08/19 06:53:56;;;;;;;18.03;11.43;;;;;;;;;;5093010;28;20923;-77
2022/08/19 06:56:25;;;;;;;15.07;10.10;;;;;;;;;;5093414;28;20928;-77
2022/08/19 06:58:53;;;;;;;16.70;11.63;;;;;;;;;;5093145;28;20445;-76
2022/08/19 07:01:20;;;;;;;13.93;10.50;;;;;;;;;;5093572;28;20441;-77
2022/08/19 07:03:48;;;;;;;15.67;10.30;;;;;;;;;;5092747;28;20497;-77
2022/08/19 07:06:19;;;;;;;15.87;10.67;;;;;;;;;;5093340;28;20536;-74
2022/08/19 07:08:47;;;;;;;14.73;10.90;;;;;;;;;;5092977;28;20465;-77
2022/08/19 07:11:15;;;;;;;14.60;10.57;;;;;;;;;;5093758;28;20490;-73
2022/08/19 07:13:43;;;;;;;14.63;10.90;;;;;;;;;;5093731;28;20437;-76
2022/08/19 07:16:11;;;;;;;14.27;11.10;;;;;;;;;;5093686;28;20499;-77
2022/08/19 07:18:39;;;;;;;13.73;10.57;;;;;;;;;;5093733;28;20475;-77
2022/08/19 07:21:07;;;;;;;14.23;10.80;;;;;;;;;;5092774;28;20917;-77
2022/08/19 07:23:36;;;;;;;13.67;9.90;;;;;;;;;;5093212;28;20451;-77
2022/08/19 07:26:06;;;;;;;14.87;9.67;;;;;;;;;;5092493;28;20445;-77
2022/08/19 07:28:33;;;;;;;16.20;11.97;;;;;;;;;;5092918;28;20476;-77
2022/08/19 07:31:01;;;;;;;12.80;9.57;;;;;;;;;;5092324;28;20441;-77
2022/08/19 07:33:32;;;;;;;15.63;9.33;;;;;;;;;;5092737;28;20477;-77
2022/08/19 07:35:59;;;;;;;14.57;10.80;;;;;;;;;;5092740;28;20453;-77
2022/08/19 07:38:26;;;;;;;14.23;10.60;;;;;;;;;;5092798;28;20528;-77
2022/08/19 07:40:55;;;;;;;12.53;9.83;;;;;;;;;;5092068;28;20941;-77
2022/08/19 07:43:25;;;;;;;13.63;11.37;;;;;;;;;;5092982;28;20444;-77
2022/08/19 07:45:53;;;;;;;17.33;10.60;;;;;;;;;;5092293;28;20437;-77
2022/08/19 07:48:20;;;;;;;14.67;9.27;;;;;;;;;;5092302;28;20483;-77
2022/08/19 07:50:48;;;;;;;13.27;9.80;;;;;;;;;;5090854;28;20912;-77
2022/08/19 07:53:15;;;;;;;15.10;10.10;;;;;;;;;;5092898;28;20445;-77
2022/08/19 07:55:42;;;;;;;10.83;8.90;;;;;;;;;;5092553;28;20533;-77
2022/08/19 07:58:11;;;;;;;12.53;9.33;;;;;;;;;;5092286;28;20859;-77
2022/08/19 08:00:38;;;;;;;12.70;9.60;;;;;;;;;;5092499;28;20790;-77
2022/08/19 08:03:06;;;;;;;13.90;9.43;;;;;;;;;;5091781;28;20538;-77
2022/08/19 08:11:11;;;;;;;14.43;10.03;;;;;;;;;;5092262;28;20466;-78
2022/08/19 08:13:41;;;;;;;11.87;9.30;;;;;;;;;;5091772;28;21003;-77
2022/08/19 08:16:08;;;;;;;12.27;9.37;;;;;;;;;;5091206;28;20448;-73
2022/08/19 08:18:41;;;;;;;9.03;7.63;;;;;;;;;;5092282;28;20455;-77
2022/08/19 08:21:08;;;;;;;13.90;10.30;;;;;;;;;;5091774;28;20831;-77
2022/08/19 08:23:35;;;;;;;11.60;8.10;;;;;;;;;;5092475;28;20448;-77
2022/08/19 08:26:04;;;;;;;13.70;9.37;;;;;;;;;;5091109;28;20931;-77
2022/08/19 08:28:31;;;;;;;11.73;8.70;;;;;;;;;;5091863;28;20480;-79
2022/08/19 08:31:00;;;;;;;11.43;8.67;;;;;;;;;;5091318;28;20794;-77
2022/08/19 08:33:28;;;;;;;11.77;9.20;;;;;;;;;;5091972;28;20501;-77
2022/08/19 08:35:55;;;;;;;10.53;8.77;;;;;;;;;;5091207;28;20912;-77
2022/08/19 08:38:22;;;;;;;10.83;8.17;;;;;;;;;;5091438;28;20440;-77
2022/08/19 08:40:53;;;;;;;10.70;8.70;;;;;;;;;;5092989;28;20467;-77
2022/08/19 08:43:24;;;;;;;11.77;9.17;;;;;;;;;;5099005;28;20463;-76
2022/08/19 08:45:53;;;;;;;13.77;10.07;;;;;;;;;;5110036;28;20429;-77
2022/08/19 08:48:25;;;;;;;10.80;8.80;;;;;;;;;;5107729;28;20975;-77
2022/08/19 08:50:54;;;;;;;12.97;10.27;;;;;;;;;;5105656;28;20464;-77
2022/08/19 08:53:22;;;;;;;12.03;8.43;;;;;;;;;;5096837;28;20529;-77
2022/08/19 08:55:49;;;;;;;11.63;9.10;;;;;;;;;;5078273;28;20449;-77
2022/08/19 08:58:19;;;;;;;12.53;9.00;;;;;;;;;;5091112;28;20539;-76
2022/08/19 09:00:48;;;;;;;10.30;8.40;;;;;;;;;;5090760;28;20441;-77
2022/08/19 09:03:19;;;;;;;11.10;8.73;;;;;;;;;;5094379;28;20535;-76
2022/08/19 09:05:50;;;;;;;10.07;8.20;;;;;;;;;;5095338;28;20467;-76
2022/08/19 09:08:22;;;;;;;13.23;9.17;;;;;;;;;;5095319;28;20468;-77
2022/08/19 09:10:51;;;;;;;11.20;9.53;;;;;;;;;;5095424;28;20436;-77
2022/08/19 09:13:23;;;;;;;13.87;9.43;;;;;;;;;;5095807;28;20790;-77
2022/08/19 09:15:52;;;;;;;9.27;8.00;;;;;;;;;;5094795;28;20907;-77
2022/08/19 09:18:19;;;;;;;11.80;9.80;;;;;;;;;;5094977;28;20449;-77
2022/08/19 09:20:48;;;;;;;10.37;9.27;;;;;;;;;;5095087;28;20444;-76
2022/08/19 09:23:15;;;;;;;11.73;9.40;;;;;;;;;;5095430;28;20530;-77
2022/08/19 09:25:43;;;;;;;10.30;8.10;;;;;;;;;;5095774;28;20440;-77
2022/08/19 09:28:10;;;;;;;9.97;7.20;;;;;;;;;;5094959;28;20445;-77
2022/08/19 09:30:41;;;;;;;10.53;8.83;;;;;;;;;;5095218;28;20443;-77
2022/08/19 09:33:08;;;;;;;9.90;7.83;;;;;;;;;;5094579;28;20464;-76
2022/08/19 09:35:36;;;;;;;10.63;8.60;;;;;;;;;;5095034;28;20440;-77
2022/08/19 09:38:05;;;;;;;10.63;9.00;;;;;;;;;;5094482;28;20813;-77
2022/08/19 09:40:32;;;;;;;10.37;8.43;;;;;;;;;;5094776;28;20525;-77
2022/08/19 09:43:02;;;;;;;7.70;6.87;;;;;;;;;;5094608;28;20532;-77
2022/08/19 09:45:30;;;;;;;9.73;8.30;;;;;;;;;;5094981;28;20437;-77
2022/08/19 09:47:57;;;;;;;11.13;7.37;;;;;;;;;;5094259;28;20443;-78
2022/08/19 09:50:25;;;;;;;9.23;8.10;;;;;;;;;;5094800;28;20484;-78
2022/08/19 09:52:56;;;;;;;9.83;7.20;;;;;;;;;;5094743;28;20520;-77
2022/08/19 09:55:25;;;;;;;9.73;8.37;;;;;;;;;;5095137;28;20425;-77
2022/08/19 09:57:55;;;;;;;9.67;8.37;;;;;;;;;;5094389;28;20437;-78
2022/08/19 10:00:22;;;;;;;9.53;7.43;;;;;;;;;;5095087;28;20444;-78
2022/08/19 10:02:49;;;;;;;10.67;8.27;;;;;;;;;;5093953;28;20535;-78
2022/08/19 10:08:01;;;;;;;11.70;7.40;;;;;;;;;;5093717;28;20911;-77
2022/08/19 10:10:30;;;;;;;8.43;7.40;;;;;;;;;;5094543;28;21001;-77
2022/08/19 10:12:57;;;;;;;8.73;7.83;;;;;;;;;;5093655;28;20536;-77
2022/08/19 10:15:24;;;;;;;8.50;7.10;;;;;;;;;;5094033;28;20444;-78
2022/08/19 10:17:51;;;;;;;8.23;6.87;;;;;;;;;;5093566;28;21015;-78
2022/08/19 10:20:18;;;;;;;8.30;6.77;;;;;;;;;;5094786;28;20532;-77
2022/08/19 10:22:45;;;;;;;9.93;8.23;;;;;;;;;;5093845;28;20934;-77
2022/08/19 10:25:14;;;;;;;7.77;6.70;;;;;;;;;;5107149;28;20452;-78
2022/08/19 10:27:42;;;;;;;7.63;6.33;;;;;;;;;;5117158;28;20437;-77
2022/08/19 10:30:10;;;;;;;10.00;7.07;;;;;;;;;;5117129;28;20528;-78
2022/08/19 10:32:37;;;;;;;7.90;6.30;;;;;;;;;;5104779;28;20476;-76
2022/08/19 10:35:07;;;;;;;6.17;5.53;;;;;;;;;;5094051;28;20535;-77
2022/08/19 10:37:35;;;;;;;8.60;5.70;;;;;;;;;;5094219;28;20444;-77
2022/08/19 10:40:02;;;;;;;9.17;6.43;;;;;;;;;;5094065;28;20468;-79
2022/08/19 10:42:30;;;;;;;7.30;6.40;;;;;;;;;;5093900;28;20447;-77
2022/08/19 10:44:59;;;;;;;9.90;6.50;;;;;;;;;;5093616;28;20498;-77
2022/08/19 10:47:26;;;;;;;8.50;6.70;;;;;;;;;;5093165;28;20441;-78
2022/08/19 10:52:40;;;;;;;7.60;5.30;;;;;;;;;;5094448;28;20405;-78
2022/08/19 10:57:53;;;;;;;8.33;7.50;;;;;;;;;;5092921;28;20420;-77
2022/08/19 11:00:22;;;;;;;8.20;6.00;;;;;;;;;;5093872;28;20437;-78
2022/08/19 11:02:49;;;;;;;10.87;6.40;;;;;;;;;;5092691;28;20464;-77
2022/08/19 11:05:17;;;;;;;6.50;5.63;;;;;;;;;;5093600;28;20437;-77
2022/08/19 11:07:45;;;;;;;5.83;5.33;;;;;;;;;;5092806;28;20497;-73
2022/08/19 11:10:13;;;;;;;6.60;5.80;;;;;;;;;;5093653;28;20488;-77
2022/08/19 11:12:41;;;;;;;6.37;5.37;;;;;;;;;;5093610;28;20843;-77
2022/08/19 11:15:10;;;;;;;7.83;6.90;;;;;;;;;;5093048;28;20452;-77
2022/08/19 11:17:43;;;;;;;5.23;4.63;;;;;;;;;;5090324;28;20448;-77
2022/08/19 11:20:10;;;;;;;6.93;5.40;;;;;;;;;;5089365;28;20460;-77
2022/08/19 11:22:38;;;;;;;7.10;6.40;;;;;;;;;;5093470;28;20468;-77
2022/08/19 11:25:05;;;;;;;6.93;5.40;;;;;;;;;;5091612;28;20456;-77
2022/08/19 11:27:33;;;;;;;6.37;5.33;;;;;;;;;;5092621;28;20464;-77
2022/08/19 11:30:00;;;;;;;5.70;5.20;;;;;;;;;;5092344;28;20559;-77
2022/08/19 11:32:27;;;;;;;5.73;4.90;;;;;;;;;;5092096;28;20559;-77
2022/08/19 11:34:56;;;;;;;6.50;5.70;;;;;;;;;;5092003;28;20460;-78
2022/08/19 11:37:23;;;;;;;6.13;5.30;;;;;;;;;;5091683;28;20440;-77
2022/08/19 11:39:50;;;;;;;6.80;5.77;;;;;;;;;;5092826;28;20865;-77
2022/08/19 11:45:04;;;;;;;5.40;4.90;;;;;;;;;;5085239;28;20687;-77
2022/08/19 11:47:31;;;;;;;5.87;5.03;;;;;;;;;;5090370;28;20432;-77
2022/08/19 11:49:59;;;;;;;6.07;5.47;;;;;;;;;;5092812;28;20497;-79
2022/08/19 11:52:27;;;;;;;5.00;4.50;;;;;;;;;;5092041;28;20452;-77
2022/08/19 11:54:54;;;;;;;7.70;5.10;;;;;;;;;;5091635;28;20451;-77
2022/08/19 11:57:21;;;;;;;6.27;5.40;;;;;;;;;;5091596;28;20440;-78
2022/08/19 11:59:51;;;;;;;7.53;5.40;;;;;;;;;;5091559;28;20445;-77
2022/08/19 12:02:18;;;;;;;5.57;5.07;;;;;;;;;;5090173;28;20444;-77
2022/08/19 12:04:46;;;;;;;5.40;4.67;;;;;;;;;;5091367;28;20445;-76
2022/08/19 12:07:14;;;;;;;4.70;4.03;;;;;;;;;;5091734;28;20491;-78
2022/08/19 12:09:42;;;;;;;5.40;4.90;;;;;;;;;;5091569;28;20476;-70
2022/08/19 12:12:09;;;;;;;5.33;4.83;;;;;;;;;;5091732;28;20485;-77
2022/08/19 12:14:37;;;;;;;8.47;6.10;;;;;;;;;;5091429;28;20527;-77
2022/08/19 12:17:06;;;;;;;5.73;5.20;;;;;;;;;;5090597;28;20447;-77
2022/08/19 12:19:33;;;;;;;5.60;5.10;;;;;;;;;;5082978;28;20777;-77
2022/08/19 12:22:02;;;;;;;5.40;4.63;;;;;;;;;;5094138;28;20440;-78
2022/08/19 12:24:33;;;;;;;5.43;4.80;;;;;;;;;;5091338;28;20448;-78
2022/08/19 12:27:01;;;;;;;5.90;5.10;;;;;;;;;;5091588;28;20437;-78
2022/08/19 12:29:29;;;;;;;5.43;4.90;;;;;;;;;;5091386;28;20472;-77
2022/08/19 12:32:00;;;;;;;5.50;3.97;;;;;;;;;;5091521;28;20514;-78
2022/08/19 12:34:29;;;;;;;6.77;5.53;;;;;;;;;;5090871;28;21069;-77
2022/08/19 12:36:56;;;;;;;5.40;4.90;;;;;;;;;;5087612;28;20962;-78
2022/08/19 12:39:23;;;;;;;5.50;4.53;;;;;;;;;;5091125;28;20863;-77
2022/08/19 12:41:52;;;;;;;6.10;5.60;;;;;;;;;;5091178;28;20448;-77
2022/08/19 12:44:19;;;;;;;6.17;5.50;;;;;;;;;;5091119;28;20523;-78
2022/08/19 12:46:46;;;;;;;6.40;5.50;;;;;;;;;;5089962;28;20449;-77
2022/08/19 12:49:14;;;;;;;8.43;6.13;;;;;;;;;;5086256;28;20802;-72
2022/08/19 12:51:41;;;;;;;7.97;5.63;;;;;;;;;;5091682;28;20447;-77
2022/08/19 12:54:08;;;;;;;6.37;5.70;;;;;;;;;;5091784;28;20835;-77
2022/08/19 12:56:35;;;;;;;8.77;5.53;;;;;;;;;;5090209;28;20807;-78
2022/08/19 12:59:04;;;;;;;6.60;5.30;;;;;;;;;;5083289;28;20528;-77
2022/08/19 13:01:32;;;;;;;6.47;4.93;;;;;;;;;;5090125;28;20470;-77
2022/08/19 13:03:59;;;;;;;7.23;5.50;;;;;;;;;;5077204;28;20762;-77
2022/08/19 13:06:27;;;;;;;8.00;6.67;;;;;;;;;;5084155;28;20448;-77
2022/08/19 13:08:54;;;;;;;6.50;5.90;;;;;;;;;;5091002;28;20796;-77
2022/08/19 13:11:24;;;;;;;8.20;5.40;;;;;;;;;;5088337;28;20495;-77
2022/08/19 13:13:51;;;;;;;5.63;4.83;;;;;;;;;;5090785;28;20473;-77
2022/08/19 13:16:21;;;;;;;6.17;5.20;;;;;;;;;;5090351;28;20433;-77
2022/08/19 13:18:51;;;;;;;8.00;6.17;;;;;;;;;;5082544;28;20545;-77
2022/08/19 13:21:20;;;;;;;7.57;6.00;;;;;;;;;;5090443;28;20785;-78
2022/08/19 13:23:48;;;;;;;10.23;7.47;;;;;;;;;;5097240;28;20440;-77
2022/08/19 13:26:15;;;;;;;9.30;5.90;;;;;;;;;;5094984;28;20445;-77
2022/08/19 13:34:16;;;;;;;12.43;7.73;;;;;;;;;;5091534;28;20818;-77
2022/08/19 13:36:43;;;;;;;10.40;8.20;;;;;;;;;;5091340;28;20855;-77
2022/08/19 13:39:11;;;;;;;10.00;7.47;;;;;;;;;;5091709;28;20443;-77
2022/08/19 13:41:38;;;;;;;11.07;7.90;;;;;;;;;;5091608;28;20467;-77
2022/08/19 13:44:06;;;;;;;11.40;9.53;;;;;;;;;;5090981;28;20729;-77
2022/08/19 13:46:35;;;;;;;12.97;9.77;;;;;;;;;;5091153;28;20440;-79
2022/08/19 13:49:02;;;;;;;12.40;9.60;;;;;;;;;;5093600;28;20490;-77
2022/08/19 13:51:29;;;;;;;12.23;8.97;;;;;;;;;;5094997;28;20472;-77
2022/08/19 13:53:56;;;;;;;13.37;8.90;;;;;;;;;;5094966;28;20846;-77
2022/08/19 13:56:24;;;;;;;12.00;8.90;;;;;;;;;;5095239;28;20524;-78
2022/08/19 13:58:51;;;;;;;14.80;10.50;;;;;;;;;;5094598;28;20460;-77
2022/08/19 14:01:20;;;;;;;11.90;10.00;;;;;;;;;;5094906;28;20436;-76
2022/08/19 14:03:49;;;;;;;12.03;9.33;;;;;;;;;;5094334;28;20451;-77
2022/08/19 14:06:16;;;;;;;14.30;10.27;;;;;;;;;;5094483;28;20447;-76
2022/08/19 14:08:44;;;;;;;12.63;9.90;;;;;;;;;;5095011;28;20941;-74
2022/08/19 14:11:11;;;;;;;13.60;10.70;;;;;;;;;;5095585;28;20476;-77
2022/08/19 14:13:38;;;;;;;14.10;10.20;;;;;;;;;;5097709;28;20511;-77
2022/08/19 14:16:08;;;;;;;16.50;11.27;;;;;;;;;;5102800;28;20759;-76
2022/08/19 14:18:35;;;;;;;16.40;11.23;;;;;;;;;;5104455;28;20448;-77
2022/08/19 14:21:04;;;;;;;14.50;11.63;;;;;;;;;;5107525;28;20437;-77
2022/08/19 14:23:31;;;;;;;13.57;9.63;;;;;;;;;;5108707;28;20436;-78
2022/08/19 14:26:04;;;;;;;15.50;11.70;;;;;;;;;;5106161;28;20441;-78
2022/08/19 14:28:31;;;;;;;11.93;9.97;;;;;;;;;;5108617;28;20433;-77
2022/08/19 14:30:59;;;;;;;12.40;10.67;;;;;;;;;;5109187;28;20488;-78
2022/08/19 14:33:26;;;;;;;13.80;11.40;;;;;;;;;;5110858;28;20539;-77
2022/08/19 14:35:53;;;;;;;13.30;9.80;;;;;;;;;;5111266;28;20521;-76
2022/08/19 14:38:21;;;;;;;10.83;9.60;;;;;;;;;;5115557;28;20437;-76
2022/08/19 14:40:49;;;;;;;11.50;9.50;;;;;;;;;;5115069;28;20468;-75
2022/08/19 14:43:17;;;;;;;12.47;10.43;;;;;;;;;;5115775;28;20437;-73
2022/08/19 14:45:44;;;;;;;11.77;9.33;;;;;;;;;;5114376;28;20440;-68
2022/08/19 14:48:12;;;;;;;12.40;9.60;;;;;;;;;;5116550;28;20437;-77
2022/08/19 14:50:39;;;;;;;10.97;9.23;;;;;;;;;;5116389;28;20477;-76
2022/08/19 14:53:07;;;;;;;10.03;9.00;;;;;;;;;;5115315;28;20884;-77
2022/08/19 14:55:36;;;;;;;11.17;8.37;;;;;;;;;;5116409;28;20493;-75
2022/08/19 14:58:03;;;;;;;8.77;7.87;;;;;;;;;;5114091;28;20447;-77
2022/08/19 15:00:30;;;;;;;10.83;8.93;;;;;;;;;;5116721;28;20440;-76
2022/08/19 15:02:58;;;;;;;10.70;7.80;;;;;;;;;;5114253;28;20456;-77